createdAt,value
2023-04-15T08:08:52.423Z,101.25
2023-04-15T08:09:52.411Z,106.88
2023-04-15T08:10:52.843Z,112.50
2023-04-15T08:11:52.417Z,101.25
2023-04-15T08:12:52.423Z,106.88
2023-04-15T08:13:52.449Z,106.88
2023-04-15T08:14:52.426Z,112.50
2023-04-15T08:15:52.494Z,118.13
2023-04-15T08:16:52.444Z,106.88
2023-04-15T08:17:52.479Z,123.75
2023-04-15T08:18:52.446Z,112.50
2023-04-15T08:19:52.460Z,135.00
2023-04-15T08:20:52.459Z,135.00
2023-04-15T08:21:52.461Z,106.88
2023-04-15T08:22:52.473Z,112.50
2023-04-15T08:23:52.479Z,95.63
2023-04-15T08:24:52.521Z,95.63
2023-04-15T08:25:52.481Z,95.63
2023-04-15T08:26:52.496Z,95.63
2023-04-15T08:27:52.501Z,106.88
2023-04-15T08:28:52.509Z,101.25
2023-04-15T08:29:52.509Z,101.25
2023-04-15T08:30:52.516Z,95.63
2023-04-15T08:31:52.625Z,106.88
2023-04-15T08:32:52.588Z,101.25
2023-04-15T08:33:52.537Z,95.63
2023-04-15T08:34:52.538Z,106.88
2023-04-15T08:35:52.536Z,123.75
2023-04-15T08:36:52.551Z,118.13
2023-04-15T08:37:52.548Z,112.50
2023-04-15T08:38:52.559Z,112.50
2023-04-15T08:39:52.572Z,112.50
2023-04-15T08:40:52.584Z,123.75
2023-04-15T08:41:52.568Z,112.50
2023-04-15T08:42:52.580Z,129.38
2023-04-15T08:43:52.583Z,135.00
2023-04-15T08:44:52.591Z,135.00
2023-04-15T08:45:52.590Z,135.00
2023-04-15T08:46:52.620Z,135.00
2023-04-15T08:47:52.723Z,129.38
2023-04-15T08:48:52.626Z,129.38
2023-04-15T08:49:52.618Z,135.00
2023-04-15T08:50:52.634Z,135.00
2023-04-15T08:51:52.630Z,129.38
2023-04-15T08:52:52.638Z,140.63
2023-04-15T08:53:52.654Z,146.25
2023-04-15T08:54:52.643Z,129.38
2023-04-15T08:55:52.674Z,129.38
2023-04-15T08:56:52.749Z,129.38
2023-04-15T08:57:52.660Z,129.38
2023-04-15T08:58:52.662Z,129.38
2023-04-15T08:59:52.680Z,123.75
2023-04-15T09:00:52.748Z,129.38
2023-04-15T09:01:52.725Z,129.38
2023-04-15T09:02:52.858Z,123.75
2023-04-15T09:03:52.760Z,129.38
2023-04-15T09:04:52.708Z,118.13
2023-04-15T09:05:53.279Z,118.13
2023-04-15T09:06:52.719Z,118.13
2023-04-15T09:07:52.763Z,123.75
2023-04-15T09:08:52.720Z,129.38
2023-04-15T09:09:52.739Z,129.38
2023-04-15T09:10:52.746Z,129.38
2023-04-15T09:11:52.754Z,123.75
2023-04-15T09:12:52.767Z,129.38
2023-04-15T09:13:52.754Z,118.13
2023-04-15T09:14:52.763Z,112.50
2023-04-15T09:15:52.762Z,112.50
2023-04-15T09:16:52.798Z,106.88
2023-04-15T09:17:52.806Z,118.13
2023-04-15T09:18:52.785Z,118.13
2023-04-15T09:19:52.798Z,118.13
2023-04-15T09:20:52.787Z,106.88
2023-04-15T09:21:52.803Z,123.75
2023-04-15T09:22:52.804Z,118.13
2023-04-15T09:23:52.812Z,123.75
2023-04-15T09:24:52.818Z,118.13
2023-04-15T09:25:52.817Z,123.75
2023-04-15T09:26:52.822Z,146.25
2023-04-15T09:27:52.824Z,146.25
2023-04-15T09:28:52.915Z,140.63
2023-04-15T09:29:52.841Z,129.38
2023-04-15T09:30:52.868Z,129.38
2023-04-15T09:31:52.854Z,151.88
2023-04-15T09:32:53.001Z,146.25
2023-04-15T09:33:52.868Z,135.00
2023-04-15T09:34:52.874Z,129.38
2023-04-15T09:35:52.877Z,129.38
2023-04-15T09:36:52.890Z,123.75
2023-04-15T09:37:52.880Z,123.75
2023-04-15T09:38:52.972Z,118.13
2023-04-15T09:39:52.896Z,129.38
2023-04-15T09:40:52.907Z,129.38
2023-04-15T09:41:52.910Z,146.25
2023-04-15T09:42:52.917Z,129.38
2023-04-15T09:43:52.917Z,123.75
2023-04-15T09:44:52.946Z,123.75
2023-04-15T09:45:52.949Z,129.38
2023-04-15T09:46:52.935Z,135.00
2023-04-15T09:47:52.941Z,135.00
2023-04-15T09:48:52.968Z,129.38
2023-04-15T09:49:52.964Z,112.50
2023-04-15T09:50:52.958Z,118.13
2023-04-15T09:52:04.402Z,112.50
2023-04-15T09:52:52.976Z,112.50
2023-04-15T09:53:52.995Z,112.50
2023-04-15T09:54:52.985Z,101.25
2023-04-15T09:55:52.986Z,106.88
2023-04-15T09:56:53.000Z,101.25
2023-04-15T09:57:53.003Z,112.50
2023-04-15T09:58:53.005Z,101.25
2023-04-15T09:59:53.008Z,95.63
2023-04-15T10:00:53.067Z,101.25
2023-04-15T10:01:53.088Z,106.88
2023-04-15T10:02:53.192Z,129.38
2023-04-15T10:03:53.082Z,129.38
2023-04-15T10:04:53.046Z,118.13
2023-04-15T10:05:53.057Z,118.13
2023-04-15T10:06:53.061Z,118.13
2023-04-15T10:07:53.065Z,135.00
2023-04-15T10:08:53.070Z,135.00
2023-04-15T10:09:53.095Z,129.38
2023-04-15T10:10:53.092Z,123.75
2023-04-15T10:11:53.092Z,106.88
2023-04-15T10:12:53.093Z,106.88
2023-04-15T10:13:53.095Z,118.13
2023-04-15T10:14:53.127Z,123.75
2023-04-15T10:15:53.154Z,106.88
2023-04-15T10:16:53.180Z,112.50
2023-04-15T10:17:53.165Z,106.88
2023-04-15T10:18:53.126Z,101.25
2023-04-15T10:19:53.134Z,95.63
2023-04-15T10:20:53.136Z,90.00
2023-04-15T10:21:53.150Z,123.75
2023-04-15T10:22:53.166Z,118.13
2023-04-15T10:23:53.167Z,90.00
2023-04-15T10:24:53.161Z,78.75
2023-04-15T10:25:53.167Z,78.75
2023-04-15T10:26:53.173Z,78.75
2023-04-15T10:27:53.173Z,90.00
2023-04-15T10:28:53.186Z,106.88
2023-04-15T10:29:53.188Z,101.25
2023-04-15T10:30:53.241Z,106.88
2023-04-15T10:31:53.237Z,90.00
2023-04-15T10:32:53.283Z,90.00
2023-04-15T10:33:53.218Z,101.25
2023-04-15T10:34:54.647Z,101.25
2023-04-15T10:35:53.226Z,112.50
2023-04-15T10:36:53.233Z,118.13
2023-04-15T10:37:53.246Z,118.13
2023-04-15T10:38:53.246Z,112.50
2023-04-15T10:39:53.254Z,112.50
2023-04-15T10:40:53.253Z,135.00
2023-04-15T10:41:53.260Z,123.75
2023-04-15T10:42:53.268Z,135.00
2023-04-15T10:43:53.298Z,123.75
2023-04-15T10:44:53.282Z,112.50
2023-04-15T10:45:53.312Z,106.88
2023-04-15T10:46:53.463Z,118.13
2023-04-15T10:47:53.348Z,112.50
2023-04-15T10:48:53.331Z,90.00
2023-04-15T10:49:53.316Z,84.38
2023-04-15T10:50:53.323Z,90.00
2023-04-15T10:51:53.317Z,90.00
2023-04-15T10:52:53.338Z,95.63
2023-04-15T10:53:53.338Z,101.25
2023-04-15T10:54:53.346Z,106.88
2023-04-15T10:55:53.340Z,106.88
2023-04-15T10:56:53.358Z,112.50
2023-04-15T10:57:53.361Z,106.88
2023-04-15T10:58:53.362Z,112.50
2023-04-15T10:59:53.366Z,112.50
2023-04-15T11:00:53.377Z,118.13
2023-04-15T11:01:53.551Z,118.13
2023-04-15T11:02:53.525Z,123.75
2023-04-15T11:03:53.450Z,123.75
2023-04-15T11:04:53.503Z,123.75
2023-04-15T11:05:53.416Z,118.13
2023-04-15T11:06:53.418Z,129.38
2023-04-15T11:07:53.414Z,129.38
2023-04-15T11:08:53.424Z,129.38
2023-04-15T11:09:53.425Z,123.75
2023-04-15T11:10:53.431Z,118.13
2023-04-15T11:11:53.448Z,106.88
2023-04-15T11:12:53.453Z,112.50
2023-04-15T11:13:53.455Z,101.25
2023-04-15T11:14:53.455Z,101.25
2023-04-15T11:15:53.482Z,101.25
2023-04-15T11:16:53.475Z,118.13
2023-04-15T11:17:53.559Z,106.88
2023-04-15T11:18:53.478Z,95.63
2023-04-15T11:19:53.500Z,95.63
2023-04-15T11:20:53.514Z,95.63
2023-04-15T11:21:53.504Z,101.25
2023-04-15T11:22:53.503Z,95.63
2023-04-15T11:23:53.510Z,101.25
2023-04-15T11:24:53.517Z,95.63
2023-04-15T11:25:53.520Z,112.50
2023-04-15T11:26:53.534Z,112.50
2023-04-15T11:27:53.533Z,112.50
2023-04-15T11:28:53.540Z,112.50
2023-04-15T11:29:53.546Z,118.13
2023-04-15T11:30:53.551Z,118.13
2023-04-15T11:31:53.609Z,118.13
2023-04-15T11:32:53.624Z,129.38
2023-04-15T11:33:53.577Z,118.13
2023-04-15T11:34:53.575Z,129.38
2023-04-15T11:35:53.584Z,135.00
2023-04-15T11:36:53.604Z,118.13
2023-04-15T11:37:53.598Z,123.75
2023-04-15T11:38:53.609Z,112.50
2023-04-15T11:39:53.612Z,118.13
2023-04-15T11:40:56.686Z,101.25
2023-04-15T11:41:53.630Z,101.25
2023-04-15T11:42:53.629Z,101.25
2023-04-15T11:43:53.647Z,90.00
2023-04-15T11:44:53.647Z,101.25
2023-04-15T11:45:53.884Z,95.63
2023-04-15T11:46:53.660Z,90.00
2023-04-15T11:47:53.719Z,90.00
2023-04-15T11:48:53.667Z,90.00
2023-04-15T11:49:53.675Z,90.00
2023-04-15T11:50:53.681Z,84.38
2023-04-15T11:51:53.688Z,84.38
2023-04-15T11:52:53.715Z,84.38
2023-04-15T11:53:53.706Z,95.63
2023-04-15T11:54:53.716Z,90.00
2023-04-15T11:55:53.707Z,84.38
2023-04-15T11:56:53.731Z,78.75
2023-04-15T11:57:53.724Z,78.75
2023-04-15T11:58:53.766Z,78.75
2023-04-15T11:59:53.733Z,78.75
2023-04-15T12:00:53.738Z,95.63
2023-04-15T12:01:53.801Z,101.25
2023-04-15T12:02:53.869Z,95.63
2023-04-15T12:03:53.951Z,95.63
2023-04-15T12:04:53.886Z,84.38
2023-04-15T12:05:53.775Z,84.38
2023-04-15T12:06:53.774Z,90.00
2023-04-15T12:07:53.780Z,84.38
2023-04-15T12:08:53.811Z,90.00
2023-04-15T12:09:53.789Z,90.00
2023-04-15T12:10:53.805Z,78.75
2023-04-15T12:11:53.880Z,84.38
2023-04-15T12:12:53.820Z,78.75
2023-04-15T12:13:53.821Z,73.13
2023-04-15T12:14:53.830Z,78.75
2023-04-15T12:15:53.871Z,78.75
2023-04-15T12:16:53.848Z,73.13
2023-04-15T12:17:53.878Z,73.13
2023-04-15T12:18:53.847Z,95.63
2023-04-15T12:19:53.849Z,118.13
2023-04-15T12:20:53.865Z,123.75
2023-04-15T12:21:53.868Z,106.88
2023-04-15T12:22:53.896Z,101.25
2023-04-15T12:23:53.887Z,78.75
2023-04-15T12:24:53.926Z,78.75
2023-04-15T12:25:53.903Z,78.75
2023-04-15T12:26:53.898Z,78.75
2023-04-15T12:27:53.922Z,61.88
2023-04-15T12:28:53.908Z,61.88
2023-04-15T12:29:53.921Z,61.88
2023-04-15T12:30:54.021Z,73.13
2023-04-15T12:31:53.949Z,67.50
2023-04-15T12:32:53.963Z,61.88
2023-04-15T12:33:53.958Z,50.63
2023-04-15T12:34:53.951Z,56.25
2023-04-15T12:35:53.952Z,56.25
2023-04-15T12:36:53.970Z,56.25
2023-04-15T12:37:53.977Z,39.38
2023-04-15T12:38:53.970Z,45.00
2023-04-15T12:39:54.012Z,45.00
2023-04-15T12:40:54.026Z,39.38
2023-04-15T12:41:53.995Z,50.63
2023-04-15T12:42:54.004Z,56.25
2023-04-15T12:43:54.003Z,61.88
2023-04-15T12:44:54.012Z,61.88
2023-04-15T12:45:54.016Z,50.63
2023-04-15T12:46:54.068Z,56.25
2023-04-15T12:47:54.059Z,61.88
2023-04-15T12:48:54.048Z,73.13
2023-04-15T12:49:54.048Z,78.75
2023-04-15T12:50:54.058Z,78.75
2023-04-15T12:51:54.069Z,73.13
2023-04-15T12:52:54.061Z,45.00
2023-04-15T12:53:54.070Z,67.50
2023-04-15T12:54:54.081Z,90.00
2023-04-15T12:55:54.087Z,84.38
2023-04-15T12:56:54.106Z,61.88
2023-04-15T12:57:54.095Z,45.00
2023-04-15T12:58:54.092Z,50.63
2023-04-15T12:59:54.105Z,56.25
2023-04-15T13:00:54.116Z,61.88
2023-04-15T13:01:54.602Z,67.50
2023-04-15T13:02:54.184Z,61.88
2023-04-15T13:03:54.227Z,61.88
2023-04-15T13:04:54.210Z,73.13
2023-04-15T13:05:54.142Z,61.88
2023-04-15T13:06:54.153Z,61.88
2023-04-15T13:07:54.163Z,61.88
2023-04-15T13:08:58.204Z,73.13
2023-04-15T13:09:54.175Z,73.13
2023-04-15T13:10:54.164Z,78.75
2023-04-15T13:11:54.190Z,50.63
2023-04-15T13:12:54.209Z,67.50
2023-04-15T13:13:54.190Z,67.50
2023-04-15T13:14:54.200Z,61.88
2023-04-15T13:15:54.277Z,61.88
2023-04-15T13:16:54.220Z,67.50
2023-04-15T13:17:54.318Z,61.88
2023-04-15T13:18:54.222Z,56.25
2023-04-15T13:19:54.223Z,56.25
2023-04-15T13:20:54.228Z,50.63
2023-04-15T13:21:54.237Z,67.50
2023-04-15T13:22:54.249Z,56.25
2023-04-15T13:23:54.253Z,39.38
2023-04-15T13:24:54.253Z,39.38
2023-04-15T13:25:54.276Z,33.75
2023-04-15T13:26:54.266Z,28.13
2023-04-15T13:27:54.266Z,22.50
2023-04-15T13:28:54.293Z,28.13
2023-04-15T13:29:54.286Z,33.75
2023-04-15T13:30:54.290Z,33.75
2023-04-15T13:31:54.413Z,39.38
2023-04-15T13:32:54.368Z,33.75
2023-04-15T13:33:54.307Z,39.38
2023-04-15T13:34:54.321Z,39.38
2023-04-15T13:35:54.316Z,39.38
2023-04-15T13:36:54.329Z,39.38
2023-04-15T13:37:54.336Z,39.38
2023-04-15T13:38:54.344Z,33.75
2023-04-15T13:39:54.344Z,33.75
2023-04-15T13:40:54.358Z,33.75
2023-04-15T13:41:54.359Z,33.75
2023-04-15T13:42:54.363Z,28.13
2023-04-15T13:43:54.377Z,28.13
2023-04-15T13:44:54.394Z,28.13
2023-04-15T13:45:54.404Z,28.13
2023-04-15T13:46:54.388Z,28.13
2023-04-15T13:47:54.514Z,28.13
2023-04-15T13:48:54.390Z,28.13
2023-04-15T13:49:54.399Z,33.75
2023-04-15T13:50:54.409Z,39.38
2023-04-15T13:51:54.423Z,33.75
2023-04-15T13:52:54.424Z,33.75
2023-04-15T13:53:54.423Z,33.75
2023-04-15T13:55:07.063Z,28.13
2023-04-15T13:55:54.439Z,28.13
2023-04-15T13:56:54.441Z,28.13
2023-04-15T13:57:54.450Z,22.50
2023-04-15T13:59:36.996Z,22.50
2023-04-15T14:00:37.150Z,22.50
2023-04-15T14:01:37.030Z,45.00
2023-04-15T14:02:37.170Z,39.38
2023-04-15T14:03:37.311Z,45.00
2023-04-15T14:04:37.037Z,56.25
2023-04-15T14:05:37.037Z,61.88
2023-04-15T14:06:37.035Z,56.25
2023-04-15T14:07:37.049Z,78.75
2023-04-15T14:08:37.063Z,90.00
2023-04-15T14:09:43.010Z,95.63
2023-04-15T14:10:37.060Z,123.75
2023-04-15T14:11:37.087Z,140.63
2023-04-15T14:12:37.083Z,140.63
2023-04-15T14:13:37.075Z,163.13
2023-04-15T14:14:37.081Z,185.63
2023-04-15T14:15:37.125Z,168.75
2023-04-15T14:16:37.130Z,129.38
2023-04-15T14:17:37.147Z,101.25
2023-04-15T14:18:37.115Z,73.13
2023-04-15T14:19:37.114Z,78.75
2023-04-15T14:20:37.118Z,90.00
2023-04-15T14:21:37.122Z,84.38
2023-04-15T14:22:37.137Z,112.50
2023-04-15T14:23:37.133Z,112.50
2023-04-15T14:24:37.147Z,101.25
2023-04-15T14:25:37.146Z,118.13
2023-04-15T14:27:19.709Z,118.13
2023-04-15T14:28:19.701Z,101.25
2023-04-15T14:29:19.705Z,101.25
2023-04-15T14:30:19.705Z,101.25
2023-04-15T14:31:19.942Z,106.88
2023-04-15T14:32:19.839Z,106.88
2023-04-15T14:33:19.739Z,106.88
2023-04-15T14:34:19.737Z,123.75
2023-04-15T14:35:19.753Z,129.38
2023-04-15T14:36:19.761Z,112.50
2023-04-15T14:37:19.766Z,135.00
2023-04-15T14:38:19.760Z,123.75
2023-04-15T14:39:19.763Z,129.38
2023-04-15T14:40:19.775Z,140.63
2023-04-15T14:41:19.781Z,151.88
2023-04-15T14:42:19.787Z,168.75
2023-04-15T14:43:19.787Z,180.00
2023-04-15T14:44:19.802Z,180.00
2023-04-15T14:45:19.812Z,191.25
2023-04-15T14:46:19.886Z,180.00
2023-04-15T14:47:19.889Z,157.50
2023-04-15T14:48:19.846Z,146.25
2023-04-15T14:49:19.853Z,135.00
2023-04-15T14:50:19.841Z,129.38
2023-04-15T14:51:19.843Z,129.38
2023-04-15T14:52:19.848Z,135.00
2023-04-15T14:53:19.864Z,157.50
2023-04-15T14:54:21.208Z,174.38
2023-04-15T14:55:19.886Z,174.38
2023-04-15T14:56:19.882Z,180.00
2023-04-15T14:57:19.889Z,180.00
2023-04-15T14:58:19.886Z,185.63
2023-04-15T14:59:19.901Z,163.13
2023-04-15T15:00:19.907Z,123.75
2023-04-15T15:01:19.922Z,101.25
2023-04-15T15:02:37.312Z,101.25
2023-04-15T15:03:19.979Z,106.88
2023-04-15T15:04:20.030Z,112.50
2023-04-15T15:05:20.071Z,106.88
2023-04-15T15:06:19.949Z,118.13
2023-04-15T15:07:19.954Z,118.13
2023-04-15T15:08:19.953Z,123.75
2023-04-15T15:09:19.973Z,135.00
2023-04-15T15:10:30.261Z,146.25
2023-04-15T15:11:19.971Z,135.00
2023-04-15T15:12:19.991Z,123.75
2023-04-15T15:13:19.996Z,123.75
2023-04-15T15:14:20.001Z,123.75
2023-04-15T15:16:20.097Z,90.00
2023-04-15T15:18:07.652Z,73.13
2023-04-15T15:19:07.585Z,73.13
2023-04-15T15:20:07.600Z,67.50
2023-04-15T15:21:07.593Z,61.88
2023-04-15T15:22:50.134Z,61.88
2023-04-15T15:23:50.147Z,61.88
2023-04-15T15:24:50.149Z,61.88
2023-04-15T15:25:50.158Z,56.25
2023-04-15T15:26:50.169Z,50.63
2023-04-15T15:27:50.166Z,50.63
2023-04-15T15:28:50.188Z,50.63
2023-04-15T15:29:50.178Z,56.25
2023-04-15T15:30:50.185Z,56.25
2023-04-15T15:31:50.237Z,61.88
2023-04-15T15:32:50.314Z,61.88
2023-04-15T15:33:50.215Z,67.50
2023-04-15T15:34:50.212Z,73.13
2023-04-15T15:35:50.248Z,78.75
2023-04-15T15:36:50.226Z,78.75
2023-04-15T15:37:50.235Z,73.13
2023-04-15T15:38:50.240Z,73.13
2023-04-15T15:39:50.244Z,67.50
2023-04-15T15:40:50.251Z,67.50
2023-04-15T15:41:50.261Z,61.88
2023-04-15T15:42:50.262Z,61.88
2023-04-15T15:43:50.276Z,61.88
2023-04-15T15:44:50.291Z,61.88
2023-04-15T15:45:50.287Z,56.25
2023-04-15T15:46:50.313Z,56.25
2023-04-15T15:47:50.362Z,50.63
2023-04-15T15:48:50.302Z,50.63
2023-04-15T15:49:50.330Z,45.00
2023-04-15T15:50:50.316Z,45.00
2023-04-15T15:51:50.344Z,45.00
2023-04-15T15:52:50.349Z,45.00
2023-04-15T15:53:50.345Z,45.00
2023-04-15T15:54:50.348Z,39.38
2023-04-15T15:55:51.102Z,39.38
2023-04-15T15:56:50.348Z,39.38
2023-04-15T15:59:22.997Z,39.38
2023-04-15T16:00:23.012Z,39.38
2023-04-15T16:01:23.040Z,39.38
2023-04-15T16:02:37.580Z,39.38
2023-04-15T16:03:23.149Z,39.38
2023-04-15T16:04:23.487Z,39.38
2023-04-15T16:05:23.042Z,39.38
2023-04-15T16:06:23.044Z,33.75
2023-04-15T16:07:23.075Z,33.75
2023-04-15T16:08:23.059Z,33.75
2023-04-15T16:09:23.056Z,33.75
2023-04-15T16:10:23.072Z,33.75
2023-04-15T16:11:23.078Z,33.75
2023-04-15T16:12:23.085Z,33.75
2023-04-15T16:13:23.089Z,33.75
2023-04-15T16:14:23.097Z,33.75
2023-04-15T16:15:23.100Z,33.75
2023-04-15T16:16:23.160Z,33.75
2023-04-15T16:17:23.136Z,39.38
2023-04-15T16:18:23.132Z,33.75
2023-04-15T16:19:23.127Z,39.38
2023-04-15T16:20:23.130Z,50.63
2023-04-15T16:21:23.130Z,50.63
2023-04-15T16:22:23.145Z,56.25
2023-04-15T16:23:23.294Z,56.25
2023-04-15T16:24:23.172Z,50.63
2023-04-15T16:25:23.165Z,50.63
2023-04-15T16:26:23.186Z,56.25
2023-04-15T16:27:23.174Z,61.88
2023-04-15T16:28:26.721Z,61.88
2023-04-15T16:29:23.198Z,56.25
2023-04-15T16:30:23.199Z,61.88
2023-04-15T16:31:23.314Z,61.88
2023-04-15T16:32:23.252Z,61.88
2023-04-15T16:33:23.228Z,67.50
2023-04-15T16:34:23.238Z,67.50
2023-04-15T16:35:23.232Z,67.50
2023-04-15T16:36:23.242Z,67.50
2023-04-15T16:37:23.232Z,67.50
2023-04-15T16:38:23.258Z,67.50
2023-04-15T16:39:23.274Z,67.50
2023-04-15T16:40:23.257Z,61.88
2023-04-15T16:41:23.272Z,61.88
2023-04-15T16:42:23.271Z,61.88
2023-04-15T16:43:23.281Z,61.88
2023-04-15T16:44:23.277Z,56.25
2023-04-15T16:45:23.289Z,56.25
2023-04-15T16:46:23.323Z,45.00
2023-04-15T16:47:23.332Z,56.25
2023-04-15T16:48:23.312Z,61.88
2023-04-15T16:50:05.855Z,67.50
2023-04-15T16:51:05.857Z,61.88
2023-04-15T16:52:05.864Z,61.88
2023-04-15T16:53:05.871Z,61.88
2023-04-15T16:54:05.881Z,56.25
2023-04-15T16:55:05.928Z,56.25
2023-04-15T16:56:05.892Z,50.63
2023-04-15T16:57:05.893Z,50.63
2023-04-15T16:58:07.896Z,45.00
2023-04-15T16:59:06.051Z,39.38
2023-04-15T17:00:05.913Z,33.75
2023-04-15T17:01:05.959Z,33.75
2023-04-15T17:02:05.956Z,33.75
2023-04-15T17:03:06.264Z,28.13
2023-04-15T17:04:06.048Z,28.13
2023-04-15T17:05:05.945Z,22.50
2023-04-15T17:06:05.960Z,22.50
2023-04-15T17:07:05.957Z,22.50
2023-04-15T17:08:05.967Z,22.50
2023-04-15T17:09:06.167Z,22.50
2023-04-15T17:10:05.974Z,22.50
2023-04-15T17:11:06.011Z,16.88
2023-04-15T17:12:05.987Z,16.88
2023-04-15T17:13:05.999Z,16.88
2023-04-15T17:14:06.023Z,16.88
2023-04-15T17:15:06.022Z,16.88
2023-04-15T17:16:06.112Z,22.50
2023-04-15T17:18:08.601Z,16.88
2023-04-15T17:19:08.609Z,16.88
2023-04-15T17:20:08.620Z,16.88
2023-04-15T17:21:08.625Z,16.88
2023-04-15T17:22:08.623Z,16.88
2023-04-15T17:23:08.632Z,11.25
2023-04-15T17:24:08.644Z,11.25
2023-04-15T17:25:08.640Z,11.25
2023-04-15T17:26:08.655Z,11.25
2023-04-15T17:27:08.682Z,11.25
2023-04-15T17:28:08.701Z,11.25
2023-04-15T17:29:08.675Z,11.25
2023-04-15T17:30:08.787Z,11.25
2023-04-15T17:31:08.724Z,11.25
2023-04-15T17:32:08.694Z,11.25
2023-04-15T17:33:50.461Z,11.25
2023-04-15T17:34:09.802Z,11.25
2023-04-15T17:35:08.708Z,11.25
2023-04-15T17:36:08.723Z,11.25
2023-04-15T17:37:08.722Z,5.63
2023-04-15T17:38:08.727Z,5.63
2023-04-15T17:39:08.746Z,5.63
2023-04-15T17:40:09.122Z,5.63
2023-04-15T17:41:08.752Z,5.63
2023-04-15T17:42:08.757Z,5.63
2023-04-15T17:44:22.953Z,5.63
2023-04-15T17:45:21.364Z,5.63
2023-04-15T17:46:21.393Z,5.63
2023-04-15T17:47:21.399Z,0.00
2023-04-15T17:48:21.378Z,0.00
2023-04-15T17:49:21.385Z,0.00
2023-04-15T17:50:21.389Z,0.00
2023-04-15T17:51:21.396Z,0.00
2023-04-15T17:52:21.410Z,0.00
2023-04-15T17:53:21.412Z,0.00
2023-04-15T17:54:21.414Z,0.00
2023-04-15T17:55:21.422Z,0.00
2023-04-15T17:56:21.426Z,0.00
2023-04-15T17:57:21.446Z,0.00
2023-04-15T17:58:21.448Z,0.00
2023-04-15T17:59:21.447Z,0.00
2023-04-15T18:00:21.481Z,0.00
2023-04-15T18:01:21.547Z,0.00
2023-04-15T18:02:21.650Z,0.00
2023-04-15T18:03:21.610Z,0.00
2023-04-15T18:04:22.810Z,0.00
2023-04-15T18:05:21.551Z,0.00
2023-04-15T18:06:21.481Z,0.00
2023-04-15T18:07:21.514Z,0.00
2023-04-15T18:08:21.503Z,0.00
2023-04-15T18:09:21.507Z,0.00
2023-04-15T18:10:21.514Z,0.00
2023-04-15T18:11:21.518Z,0.00
2023-04-15T18:12:21.520Z,0.00
2023-04-15T18:13:21.523Z,0.00
2023-04-15T18:14:33.676Z,0.00
2023-04-15T18:15:21.564Z,0.00
2023-04-15T18:16:21.668Z,0.00
2023-04-15T18:17:21.576Z,0.00
2023-04-15T18:18:21.560Z,0.00
2023-04-15T18:19:21.566Z,0.00
2023-04-15T18:20:21.567Z,0.00
2023-04-15T18:21:21.583Z,0.00
2023-04-15T18:22:21.576Z,0.00
2023-04-15T18:23:21.595Z,0.00
2023-04-15T18:24:21.601Z,0.00
2023-04-15T18:25:21.607Z,0.00
2023-04-15T18:26:21.612Z,0.00
2023-04-15T18:27:21.615Z,0.00
2023-04-15T18:28:21.622Z,0.00
2023-04-15T18:30:21.634Z,0.00
2023-04-15T18:32:04.278Z,0.00
2023-04-15T18:33:04.221Z,0.00
2023-04-15T18:34:04.456Z,0.00
2023-04-15T18:35:04.200Z,0.00
2023-04-15T18:36:04.213Z,0.00
2023-04-15T18:37:04.214Z,0.00
2023-04-15T18:38:04.214Z,0.00
2023-04-15T18:39:04.636Z,0.00
2023-04-15T18:40:04.235Z,0.00
2023-04-15T18:41:04.227Z,0.00
2023-04-15T18:42:04.238Z,0.00
2023-04-15T18:43:04.243Z,0.00
2023-04-15T18:44:04.255Z,0.00
2023-04-15T18:45:04.287Z,0.00
2023-04-15T18:46:04.306Z,0.00
2023-04-15T18:47:04.270Z,0.00
2023-04-15T18:48:04.367Z,0.00
2023-04-15T18:49:04.645Z,0.00
2023-04-15T18:50:04.286Z,0.00
2023-04-15T18:51:04.296Z,0.00
2023-04-15T18:52:04.321Z,0.00
2023-04-15T18:53:04.310Z,0.00
2023-04-15T18:54:04.305Z,0.00
2023-04-15T18:55:04.319Z,0.00
2023-04-15T18:56:04.318Z,0.00
2023-04-15T18:57:04.332Z,0.00
2023-04-15T18:58:06.402Z,0.00
2023-04-15T18:59:11.583Z,0.00
2023-04-15T19:00:04.349Z,0.00
2023-04-15T19:01:04.397Z,0.00
2023-04-15T19:02:04.421Z,0.00
2023-04-15T19:03:04.442Z,0.00
2023-04-15T19:04:04.438Z,0.00
2023-04-15T19:05:04.418Z,0.00
2023-04-15T19:06:04.379Z,0.00
2023-04-15T19:07:04.393Z,0.00
2023-04-15T19:08:04.399Z,0.00
2023-04-15T19:10:27.016Z,0.00
2023-04-15T19:11:27.027Z,0.00
2023-04-15T19:12:27.026Z,0.00
2023-04-15T19:13:27.038Z,0.00
2023-04-15T19:14:27.038Z,0.00
2023-04-15T19:15:27.043Z,0.00
2023-04-15T19:16:27.148Z,0.00
2023-04-15T19:17:27.082Z,0.00
2023-04-15T19:18:27.063Z,0.00
2023-04-15T19:19:27.093Z,0.00
2023-04-15T19:20:27.079Z,0.00
2023-04-15T19:21:27.084Z,0.00
2023-04-15T19:22:27.092Z,0.00
2023-04-15T19:23:27.095Z,0.00
2023-04-15T19:24:27.118Z,0.00
2023-04-15T19:25:27.118Z,0.00
2023-04-15T19:26:27.107Z,0.00
2023-04-15T19:27:27.111Z,0.00
2023-04-15T19:28:27.131Z,0.00
2023-04-15T19:29:27.144Z,0.00
2023-04-15T19:30:27.155Z,0.00
2023-04-15T19:31:27.165Z,0.00
2023-04-15T19:32:27.188Z,0.00
2023-04-15T19:33:27.156Z,0.00
2023-04-15T19:34:27.159Z,0.00
2023-04-15T19:35:27.191Z,0.00
2023-04-15T19:36:27.172Z,0.00
2023-04-15T19:38:14.731Z,0.00
2023-04-15T19:39:14.745Z,0.00
2023-04-15T19:40:14.780Z,0.00
2023-04-15T19:41:14.742Z,0.00
2023-04-15T19:42:14.756Z,0.00
2023-04-15T19:43:14.772Z,0.00
2023-04-15T19:44:14.765Z,0.00
2023-04-15T19:45:14.778Z,0.00
2023-04-15T19:46:14.840Z,0.00
2023-04-15T19:47:14.787Z,0.00
2023-04-15T19:48:14.785Z,0.00
2023-04-15T19:49:14.788Z,0.00
2023-04-15T19:50:14.801Z,0.00
2023-04-15T19:51:14.819Z,0.00
2023-04-15T19:52:14.813Z,0.00
2023-04-15T19:53:14.813Z,0.00
2023-04-15T19:54:14.819Z,0.00
2023-04-15T19:55:14.835Z,0.00
2023-04-15T19:56:14.835Z,0.00
2023-04-15T19:57:14.842Z,0.00
2023-04-15T19:58:14.855Z,0.00
2023-04-15T19:59:14.881Z,0.00
2023-04-15T20:00:14.860Z,0.00
2023-04-15T20:01:14.888Z,0.00
2023-04-15T20:02:14.995Z,0.00
2023-04-15T20:03:14.992Z,0.00
2023-04-15T20:04:14.994Z,0.00
2023-04-15T20:05:14.890Z,0.00
2023-04-15T20:06:14.892Z,0.00
2023-04-15T20:07:14.921Z,0.00
2023-04-15T20:08:14.908Z,0.00
2023-04-15T20:09:14.915Z,0.00
2023-04-15T20:10:14.921Z,0.00
2023-04-15T20:11:15.117Z,0.00
2023-04-15T20:12:50.712Z,0.00
2023-04-15T20:13:14.929Z,0.00
2023-04-15T20:14:14.933Z,0.00
2023-04-15T20:15:14.944Z,0.00
2023-04-15T20:16:14.995Z,0.00
2023-04-15T20:17:14.981Z,0.00
2023-04-15T20:21:00.844Z,0.00
2023-04-15T20:22:00.854Z,0.00
2023-04-15T20:23:00.880Z,0.00
2023-04-15T20:24:00.871Z,0.00
2023-04-15T20:25:00.876Z,0.00
2023-04-15T20:26:00.877Z,0.00
2023-04-15T20:27:00.893Z,0.00
2023-04-15T20:28:01.162Z,0.00
2023-04-15T20:29:00.892Z,0.00
2023-04-15T20:30:00.889Z,0.00
2023-04-15T20:31:00.926Z,0.00
2023-04-15T20:32:00.901Z,0.00
2023-04-15T20:33:00.970Z,0.00
2023-04-15T20:34:00.920Z,0.00
2023-04-15T20:35:00.922Z,0.00
2023-04-15T20:36:00.924Z,0.00
2023-04-15T20:37:00.940Z,0.00
2023-04-15T20:40:51.855Z,0.00
2023-04-15T20:41:51.850Z,0.00
2023-04-15T20:42:51.852Z,0.00
2023-04-15T20:43:51.856Z,0.00
2023-04-15T20:44:51.856Z,0.00
2023-04-15T20:45:51.870Z,0.00
2023-04-15T20:46:51.886Z,0.00
2023-04-15T20:47:51.920Z,0.00
2023-04-15T20:48:51.891Z,0.00
2023-04-15T20:49:51.925Z,0.00
2023-04-15T20:50:51.898Z,0.00
2023-04-15T20:51:51.895Z,0.00
2023-04-15T20:52:51.903Z,0.00
2023-04-15T20:53:51.919Z,0.00
2023-04-15T20:54:51.913Z,0.00
2023-04-15T20:55:51.922Z,0.00
2023-04-15T20:59:17.798Z,0.00
2023-04-15T21:00:17.809Z,0.00
2023-04-15T21:01:17.846Z,0.00
2023-04-15T21:02:17.950Z,0.00
2023-04-15T21:03:18.048Z,0.00
2023-04-15T21:04:17.804Z,0.00
2023-04-15T21:05:17.811Z,0.00
2023-04-15T21:06:17.821Z,0.00
2023-04-15T21:07:17.832Z,0.00
2023-04-15T21:08:17.826Z,0.00
2023-04-15T21:09:17.830Z,0.00
2023-04-15T21:10:17.843Z,0.00
2023-04-15T21:11:36.576Z,0.00
2023-04-15T21:12:17.854Z,0.00
2023-04-15T21:13:17.861Z,0.00
2023-04-15T21:14:17.864Z,0.00
2023-04-15T21:17:43.745Z,0.00
2023-04-15T21:18:43.727Z,0.00
2023-04-15T21:19:43.741Z,0.00
2023-04-15T21:20:43.731Z,0.00
2023-04-15T21:21:43.746Z,0.00
2023-04-15T21:22:43.741Z,0.00